createdAt,value
2022-12-25T00:00:27.350Z,99238.93
2022-12-25T00:02:58.169Z,99243.23
2022-12-25T00:05:31.471Z,99236.02
2022-12-25T00:08:02.339Z,99238.36
2022-12-25T00:10:32.476Z,99246.76
2022-12-25T00:13:02.912Z,99244.47
2022-12-25T00:15:33.177Z,99243.55
2022-12-25T00:18:03.553Z,99250.05
2022-12-25T00:20:33.868Z,99250.16
2022-12-25T00:23:07.913Z,99243.55
2022-12-25T00:25:39.996Z,99237.49
2022-12-25T00:28:10.489Z,99234.00
2022-12-25T00:30:42.018Z,99241.14
2022-12-25T00:33:12.363Z,99259.50
2022-12-25T00:35:43.148Z,99266.63
2022-12-25T00:38:13.256Z,99259.09
2022-12-25T00:40:50.212Z,99266.84
2022-12-25T00:43:20.623Z,99263.05
2022-12-25T00:45:58.654Z,99264.50
2022-12-25T00:48:29.422Z,99270.05
2022-12-25T00:51:00.189Z,99265.75
2022-12-25T00:53:30.647Z,99258.48
2022-12-25T00:56:03.469Z,99258.33
2022-12-25T00:58:35.784Z,99269.87
2022-12-25T01:01:06.270Z,99269.23
2022-12-25T01:03:36.508Z,99269.23
2022-12-25T01:06:08.549Z,99255.13
2022-12-25T01:08:39.489Z,99239.67
2022-12-25T01:11:10.675Z,99214.36
2022-12-25T01:13:41.282Z,99195.33
2022-12-25T01:16:14.713Z,99187.23
2022-12-25T01:18:45.044Z,99196.86
2022-12-25T01:21:21.223Z,99193.36
2022-12-25T01:23:53.519Z,99182.31
2022-12-25T01:26:24.656Z,99190.88
2022-12-25T01:28:55.779Z,99201.35
2022-12-25T01:31:27.815Z,99200.31
2022-12-25T01:33:58.787Z,99202.35
2022-12-25T01:36:29.276Z,99202.97
2022-12-25T01:38:59.986Z,99203.27
2022-12-25T01:41:30.575Z,99206.41
2022-12-25T01:44:12.571Z,99202.92
2022-12-25T01:46:43.379Z,99190.39
2022-12-25T01:49:21.806Z,99176.52
2022-12-25T01:51:57.195Z,99177.46
2022-12-25T01:54:32.791Z,99154.98
2022-12-25T01:57:05.620Z,99163.10
2022-12-25T01:59:35.755Z,99169.19
2022-12-25T02:02:07.680Z,99191.36
2022-12-25T02:04:49.541Z,99202.05
2022-12-25T02:07:22.588Z,99211.16
2022-12-25T02:09:53.854Z,99210.41
2022-12-25T02:12:29.687Z,99196.53
2022-12-25T02:15:06.253Z,99187.27
2022-12-25T02:17:44.639Z,99175.05
2022-12-25T02:20:20.515Z,99173.47
2022-12-25T02:23:07.794Z,99175.95
2022-12-25T02:25:59.952Z,99191.06
2022-12-25T02:28:32.964Z,99173.38
2022-12-25T02:31:14.850Z,99169.06
2022-12-25T02:34:06.844Z,99181.95
2022-12-25T02:36:47.761Z,99163.97
2022-12-25T02:39:40.293Z,99150.91
2022-12-25T02:42:11.503Z,99152.86
2022-12-25T02:45:00.291Z,99151.80
2022-12-25T02:47:48.178Z,99151.80
2022-12-25T02:50:35.645Z,99163.73
2022-12-25T02:53:23.519Z,99169.49
2022-12-25T02:56:13.107Z,99172.01
2022-12-25T02:59:01.000Z,99174.28
2022-12-25T03:01:49.353Z,99159.78
2022-12-25T03:04:38.022Z,99177.63
2022-12-25T03:07:13.570Z,99183.17
2022-12-25T03:09:59.041Z,99187.02
2022-12-25T03:12:56.154Z,99190.08
2022-12-25T03:15:44.373Z,99189.01
2022-12-25T03:18:16.257Z,99199.19
2022-12-25T03:21:03.773Z,99192.43
2022-12-25T03:23:52.622Z,99179.88
2022-12-25T03:26:40.608Z,99187.93
2022-12-25T03:29:13.400Z,99198.72
2022-12-25T03:31:52.421Z,99211.19
2022-12-25T03:35:01.695Z,99218.48
2022-12-25T03:37:47.757Z,99232.07
2022-12-25T03:40:59.107Z,99226.53
2022-12-25T03:43:45.425Z,99207.85
2022-12-25T03:46:34.950Z,99185.37
2022-12-25T03:49:30.992Z,99181.73
2022-12-25T03:52:21.930Z,99183.77
2022-12-25T03:55:10.332Z,99195.16
2022-12-25T03:57:57.503Z,99196.16
2022-12-25T04:00:45.165Z,99189.25
2022-12-25T04:03:32.994Z,99197.36
2022-12-25T04:06:21.347Z,99210.12
2022-12-25T04:09:02.181Z,99201.52
2022-12-25T04:11:49.410Z,99188.02
2022-12-25T04:14:36.710Z,99184.91
2022-12-25T04:17:26.204Z,99175.48
2022-12-25T04:20:13.837Z,99190.63
2022-12-25T04:23:01.754Z,99200.94
2022-12-25T04:25:49.272Z,99192.58
2022-12-25T04:28:36.927Z,99189.23
2022-12-25T04:31:27.145Z,99190.52
2022-12-25T04:34:14.505Z,99196.52
2022-12-25T04:36:44.715Z,99202.59
2022-12-25T04:39:17.771Z,99197.42
2022-12-25T04:41:48.402Z,99172.84
2022-12-25T04:44:18.963Z,99171.27
2022-12-25T04:46:49.527Z,99177.27
2022-12-25T04:49:19.892Z,99172.72
2022-12-25T04:51:50.527Z,99177.40
2022-12-25T04:54:20.804Z,99182.11
2022-12-25T04:56:52.660Z,99176.11
2022-12-25T04:59:23.670Z,99178.92
2022-12-25T05:01:55.421Z,99180.30
2022-12-25T05:04:28.654Z,99186.70
2022-12-25T05:07:02.820Z,99177.75
2022-12-25T05:09:34.820Z,99183.55
2022-12-25T05:12:07.722Z,99177.84
2022-12-25T05:14:37.931Z,99172.98
2022-12-25T05:17:09.121Z,99169.51
2022-12-25T05:19:39.995Z,99158.05
2022-12-25T05:22:10.298Z,99160.77
2022-12-25T05:24:40.698Z,99164.41
2022-12-25T05:27:10.909Z,99153.27
2022-12-25T05:29:42.846Z,99150.59
2022-12-25T05:32:13.440Z,99145.44
2022-12-25T05:34:43.636Z,99134.05
2022-12-25T05:37:13.933Z,99134.88
2022-12-25T05:39:44.312Z,99138.23
2022-12-25T05:42:14.484Z,99133.38
2022-12-25T05:44:47.611Z,99126.63
2022-12-25T05:47:17.867Z,99136.70
2022-12-25T05:49:48.160Z,99146.34
2022-12-25T05:52:18.391Z,99133.28
2022-12-25T05:54:52.300Z,99132.53
2022-12-25T05:57:23.159Z,99133.15
2022-12-25T05:59:54.094Z,99131.78
2022-12-25T06:02:25.545Z,99131.53
2022-12-25T06:04:56.047Z,99128.88
2022-12-25T06:07:26.530Z,99118.23
2022-12-25T06:10:00.285Z,99110.64
2022-12-25T06:12:31.056Z,99096.00
2022-12-25T06:15:03.047Z,99082.09
2022-12-25T06:17:34.581Z,99085.97
2022-12-25T06:20:05.086Z,99089.60
2022-12-25T06:22:35.670Z,99093.17
2022-12-25T06:25:06.431Z,99087.98
2022-12-25T06:27:36.804Z,99089.97
2022-12-25T06:30:07.949Z,99083.45
2022-12-25T06:32:38.438Z,99077.73
2022-12-25T06:35:11.693Z,99071.73
2022-12-25T06:37:43.059Z,99069.60
2022-12-25T06:40:14.108Z,99072.41
2022-12-25T06:42:44.286Z,99074.92
2022-12-25T06:45:14.882Z,99077.95
2022-12-25T06:47:46.159Z,99063.19
2022-12-25T06:50:16.712Z,99063.52
2022-12-25T06:52:46.957Z,99061.92
2022-12-25T06:55:18.249Z,99064.98
2022-12-25T06:57:48.412Z,99064.73
2022-12-25T07:00:19.045Z,99054.11
2022-12-25T07:02:49.976Z,99050.30
2022-12-25T07:05:20.823Z,99049.54
2022-12-25T07:07:54.361Z,99046.55
2022-12-25T07:10:26.044Z,99044.64
2022-12-25T07:12:56.493Z,99048.53
2022-12-25T07:15:27.134Z,99060.91
2022-12-25T07:17:59.657Z,99051.62
2022-12-25T07:20:31.187Z,99047.01
2022-12-25T07:23:01.881Z,99044.56
2022-12-25T07:25:37.200Z,99038.01
2022-12-25T07:28:04.837Z,99041.89
2022-12-25T07:30:35.077Z,99040.27
2022-12-25T07:33:05.494Z,99044.69
2022-12-25T07:35:35.872Z,99042.78
2022-12-25T07:38:06.478Z,99037.92
2022-12-25T07:40:36.826Z,99031.37
2022-12-25T07:43:07.217Z,99031.14
2022-12-25T07:45:37.457Z,99025.42
2022-12-25T07:48:16.283Z,99032.04
2022-12-25T07:50:41.363Z,99039.70
2022-12-25T07:53:11.678Z,99043.05
2022-12-25T07:55:42.124Z,99036.20
2022-12-25T07:58:12.573Z,99044.48
2022-12-25T08:00:43.024Z,99054.63
2022-12-25T08:03:13.756Z,99043.69
2022-12-25T08:05:44.178Z,99041.80
2022-12-25T08:08:14.430Z,99039.64
2022-12-25T08:10:52.214Z,99037.77
2022-12-25T08:13:23.414Z,99041.62
2022-12-25T08:16:01.947Z,99043.30
2022-12-25T08:18:32.670Z,99047.98
2022-12-25T08:21:08.318Z,99045.56
2022-12-25T08:23:39.194Z,99045.44
2022-12-25T08:26:09.501Z,99046.67
2022-12-25T08:28:42.687Z,99043.81
2022-12-25T08:31:15.186Z,99041.77
2022-12-25T08:33:45.853Z,99048.55
2022-12-25T08:36:16.183Z,99041.35
2022-12-25T08:38:46.818Z,99045.09
2022-12-25T08:41:20.787Z,99047.77
2022-12-25T08:43:51.192Z,99041.63
2022-12-25T08:46:23.820Z,99041.02
2022-12-25T08:48:54.710Z,99053.50
2022-12-25T08:51:25.959Z,99055.78
2022-12-25T08:53:57.807Z,99051.36
2022-12-25T08:56:28.296Z,99048.27
2022-12-25T08:58:58.371Z,99041.65
2022-12-25T09:01:28.993Z,99046.58
2022-12-25T09:03:59.305Z,99055.10
2022-12-25T09:06:29.715Z,99055.93
2022-12-25T09:08:59.994Z,99057.59
2022-12-25T09:11:31.417Z,99058.13
2022-12-25T09:14:01.911Z,99057.30
2022-12-25T09:16:32.523Z,99054.41
2022-12-25T09:19:02.915Z,99054.41
2022-12-25T09:21:33.414Z,99043.77
2022-12-25T09:24:06.042Z,99039.95
2022-12-25T09:26:36.915Z,99033.11
2022-12-25T09:29:07.248Z,99032.06
2022-12-25T09:31:37.447Z,99028.28
2022-12-25T09:34:07.928Z,99034.90
2022-12-25T09:36:38.535Z,99025.84
2022-12-25T09:39:08.600Z,99027.27
2022-12-25T09:41:59.397Z,99020.22
2022-12-25T09:44:35.091Z,99017.48
2022-12-25T09:47:10.715Z,99030.94
2022-12-25T09:49:49.976Z,99027.41
2022-12-25T09:52:40.920Z,99019.20
2022-12-25T09:55:21.277Z,99008.58
2022-12-25T09:57:55.944Z,99009.70
2022-12-25T10:00:27.641Z,98999.08
2022-12-25T10:03:21.429Z,98994.97
2022-12-25T10:06:12.190Z,98992.52
2022-12-25T10:09:05.983Z,98995.86
2022-12-25T10:11:59.926Z,99001.08
2022-12-25T10:14:49.528Z,99008.75
2022-12-25T10:17:39.043Z,99009.06
2022-12-25T10:20:34.433Z,99000.09
2022-12-25T10:23:08.845Z,98993.55
2022-12-25T10:25:41.099Z,99005.63
2022-12-25T10:28:19.014Z,99000.98
2022-12-25T10:30:49.401Z,98985.41
2022-12-25T10:33:19.379Z,98988.42
2022-12-25T10:35:49.552Z,98996.41
2022-12-25T10:38:22.944Z,98997.52
2022-12-25T10:41:13.329Z,98994.28
2022-12-25T10:43:54.169Z,98988.80
2022-12-25T10:46:26.796Z,98982.03
2022-12-25T10:49:00.772Z,98981.77
2022-12-25T10:51:36.568Z,98982.06
2022-12-25T10:54:09.760Z,98982.06
2022-12-25T10:56:39.863Z,98978.27
2022-12-25T10:59:11.822Z,98976.65
2022-12-25T11:01:42.055Z,98992.84
2022-12-25T11:04:22.826Z,98979.45
2022-12-25T11:07:05.728Z,98995.36
2022-12-25T11:09:36.221Z,98987.66
2022-12-25T11:12:07.027Z,98994.05
2022-12-25T11:14:40.474Z,98997.07
2022-12-25T11:17:12.236Z,99006.66
2022-12-25T11:19:42.518Z,99015.14
2022-12-25T11:22:15.470Z,99026.41
2022-12-25T11:24:46.149Z,99020.68
2022-12-25T11:27:28.199Z,99014.98
2022-12-25T11:30:06.999Z,99017.72
2022-12-25T11:32:46.086Z,99009.03
2022-12-25T11:35:23.340Z,99001.05
2022-12-25T11:37:54.223Z,99003.30
2022-12-25T11:40:33.360Z,99005.53
2022-12-25T11:43:24.304Z,98995.63
2022-12-25T11:46:01.344Z,98991.59
2022-12-25T11:48:34.445Z,98996.52
2022-12-25T11:51:04.763Z,99007.78
2022-12-25T11:53:42.237Z,99012.49
2022-12-25T11:56:29.308Z,99012.49
2022-12-25T11:59:05.234Z,99008.67
2022-12-25T12:01:49.561Z,99016.63
2022-12-25T12:04:36.859Z,99021.05
2022-12-25T12:07:08.772Z,99028.72
2022-12-25T12:10:05.440Z,99030.38
2022-12-25T12:12:48.341Z,99030.16
2022-12-25T12:15:30.797Z,99015.92
2022-12-25T12:18:31.962Z,99003.80
2022-12-25T12:21:26.397Z,98993.50
2022-12-25T12:24:09.624Z,98996.38
2022-12-25T12:26:41.858Z,99005.28
2022-12-25T12:29:29.685Z,98997.84
2022-12-25T12:32:04.637Z,99001.05
2022-12-25T12:34:45.291Z,99000.39
2022-12-25T12:37:30.114Z,98992.91
2022-12-25T12:40:00.515Z,98983.20
2022-12-25T12:42:36.629Z,98991.89
2022-12-25T12:45:12.463Z,98987.95
2022-12-25T12:47:45.571Z,98980.50
2022-12-25T12:50:33.593Z,98969.27
2022-12-25T12:53:06.594Z,98967.37
2022-12-25T12:55:39.924Z,98966.83
2022-12-25T12:58:10.401Z,98973.66
2022-12-25T13:00:52.356Z,98977.26
2022-12-25T13:03:40.567Z,98975.64
2022-12-25T13:06:25.054Z,98964.98
2022-12-25T13:09:06.740Z,98969.63
2022-12-25T13:11:39.960Z,98961.73
2022-12-25T13:14:15.887Z,98961.48
2022-12-25T13:16:47.583Z,98953.59
2022-12-25T13:19:22.881Z,98946.75
2022-12-25T13:22:01.240Z,98943.77
2022-12-25T13:24:36.295Z,98940.48
2022-12-25T13:27:28.430Z,98939.44
2022-12-25T13:29:58.982Z,98939.50
2022-12-25T13:32:32.912Z,98938.77
2022-12-25T13:35:02.955Z,98928.97
2022-12-25T13:37:33.410Z,98929.79
2022-12-25T13:40:05.961Z,98941.87
2022-12-25T13:42:40.589Z,98943.53
2022-12-25T13:45:16.314Z,98938.34
2022-12-25T13:47:54.634Z,98935.92
2022-12-25T13:50:25.121Z,98935.98
2022-12-25T13:52:55.891Z,98933.05
2022-12-25T13:55:30.025Z,98938.36
2022-12-25T13:58:00.256Z,98956.15
2022-12-25T14:00:51.203Z,98946.56
2022-12-25T14:03:44.169Z,98936.58
2022-12-25T14:06:23.440Z,98955.52
2022-12-25T14:08:54.788Z,98952.83
2022-12-25T14:11:26.222Z,98949.83
2022-12-25T14:14:02.685Z,98968.02
2022-12-25T14:16:35.730Z,98969.16
2022-12-25T14:19:05.247Z,98974.62
2022-12-25T14:21:37.222Z,98977.52
2022-12-25T14:24:09.653Z,98980.64
2022-12-25T14:26:39.811Z,98982.77
2022-12-25T14:29:17.599Z,98988.66
2022-12-25T14:31:47.080Z,99004.80
2022-12-25T14:34:20.004Z,99003.43
2022-12-25T14:36:49.882Z,99006.71
2022-12-25T14:39:31.815Z,99011.25
2022-12-25T14:44:37.787Z,99026.55
2022-12-25T14:47:09.993Z,99028.27
2022-12-25T14:49:41.459Z,99019.54
2022-12-25T14:52:33.494Z,99019.58
2022-12-25T14:55:07.184Z,99024.03
2022-12-25T14:57:41.356Z,99024.03
2022-12-25T15:00:23.118Z,99028.66
2022-12-25T15:02:55.415Z,99026.91
2022-12-25T15:05:28.477Z,99021.11
2022-12-25T15:08:11.819Z,99023.03
2022-12-25T15:11:00.493Z,99031.80
2022-12-25T15:13:15.674Z,99014.43
2022-12-25T15:15:57.564Z,99026.34
2022-12-25T15:18:28.704Z,99022.49
2022-12-25T15:20:58.965Z,99031.31
2022-12-25T15:23:29.215Z,99031.22
2022-12-25T15:25:59.620Z,99023.39
2022-12-25T15:28:29.791Z,99025.73
2022-12-25T15:31:00.660Z,99016.30
2022-12-25T15:33:31.015Z,99018.41
2022-12-25T15:36:01.176Z,99011.00
2022-12-25T15:38:33.152Z,99008.78
2022-12-25T15:44:45.084Z,99013.45
2022-12-25T15:47:15.905Z,99017.64
2022-12-25T15:49:46.132Z,99006.36
2022-12-25T15:52:17.650Z,99013.51
2022-12-25T15:54:47.749Z,99013.41
2022-12-25T15:57:20.550Z,99007.05
2022-12-25T15:59:50.918Z,98999.41
2022-12-25T16:02:22.637Z,98993.63
2022-12-25T16:04:54.139Z,98984.09
2022-12-25T16:07:26.686Z,98981.38
2022-12-25T16:09:58.386Z,98976.37
2022-12-25T16:12:29.942Z,98971.75
2022-12-25T16:15:00.707Z,98969.89
2022-12-25T16:17:31.448Z,98960.12
2022-12-25T16:20:01.706Z,98960.84
2022-12-25T16:22:32.835Z,98953.80
2022-12-25T16:25:03.123Z,98957.30
2022-12-25T16:27:33.901Z,98950.58
2022-12-25T16:30:05.212Z,98949.95
2022-12-25T16:32:35.501Z,98938.23
2022-12-25T16:35:05.761Z,98940.63
2022-12-25T16:37:39.142Z,98927.34
2022-12-25T16:40:10.434Z,98920.69
2022-12-25T16:42:41.128Z,98917.76
2022-12-25T16:45:15.941Z,98912.40
2022-12-25T16:47:46.119Z,98900.88
2022-12-25T16:50:17.256Z,98901.86
2022-12-25T16:52:47.586Z,98892.77
2022-12-25T16:55:17.661Z,98890.97
2022-12-25T16:57:49.051Z,98882.27
2022-12-25T17:00:21.884Z,98878.71
2022-12-25T17:02:52.232Z,98878.71
2022-12-25T17:05:22.457Z,98879.45
2022-12-25T17:07:53.186Z,98870.36
2022-12-25T17:10:23.809Z,98866.72
2022-12-25T17:12:57.520Z,98867.46
2022-12-25T17:15:29.473Z,98846.03
2022-12-25T17:17:59.832Z,98837.66
2022-12-25T17:20:30.103Z,98834.50
2022-12-25T17:23:00.563Z,98830.94
2022-12-25T17:25:31.162Z,98820.05
2022-12-25T17:28:03.173Z,98822.98
2022-12-25T17:30:33.769Z,98815.27
2022-12-25T17:33:03.956Z,98820.17
2022-12-25T17:35:35.732Z,98814.64
2022-12-25T17:38:06.120Z,98814.25
2022-12-25T17:40:36.312Z,98808.48
2022-12-25T17:43:06.610Z,98804.40
2022-12-25T17:45:38.769Z,98798.22
2022-12-25T17:48:08.826Z,98795.73
2022-12-25T17:50:41.592Z,98790.50
2022-12-25T17:53:12.651Z,98785.50
2022-12-25T17:55:43.221Z,98777.21
2022-12-25T17:58:13.575Z,98768.75
2022-12-25T18:00:43.774Z,98756.91
2022-12-25T18:03:14.634Z,98739.17
2022-12-25T18:05:44.789Z,98737.81
2022-12-25T18:08:15.379Z,98742.92
2022-12-25T18:10:46.011Z,98737.72
2022-12-25T18:13:16.242Z,98732.48
2022-12-25T18:15:46.495Z,98721.60
2022-12-25T18:18:16.626Z,98713.64
2022-12-25T18:20:46.498Z,98703.00
2022-12-25T18:23:16.607Z,98697.94
2022-12-25T18:25:46.763Z,98694.27
2022-12-25T18:28:17.015Z,98687.22
2022-12-25T18:30:50.044Z,98685.33
2022-12-25T18:33:23.157Z,98678.52
2022-12-25T18:35:53.263Z,98678.31
2022-12-25T18:38:25.027Z,98670.77
2022-12-25T18:40:59.253Z,98658.52
2022-12-25T18:43:51.546Z,98659.11
2022-12-25T18:46:03.141Z,98655.03
2022-12-25T18:48:33.479Z,98643.96
2022-12-25T18:51:09.226Z,98627.52
2022-12-25T18:53:51.916Z,98619.14
2022-12-25T18:56:23.054Z,98607.22
2022-12-25T18:58:54.663Z,98602.31
2022-12-25T19:01:29.328Z,98600.09
2022-12-25T19:04:05.047Z,98603.67
2022-12-25T19:06:34.182Z,98589.20
2022-12-25T19:09:05.881Z,98593.79
2022-12-25T19:11:40.464Z,98588.05
2022-12-25T19:14:09.020Z,98582.32
2022-12-25T19:16:39.923Z,98572.26
2022-12-25T19:19:11.549Z,98557.70
2022-12-25T19:21:48.230Z,98547.72
2022-12-25T19:24:18.938Z,98539.63
2022-12-25T19:26:49.742Z,98527.98
2022-12-25T19:29:20.158Z,98523.70
2022-12-25T19:31:50.980Z,98525.64
2022-12-25T19:34:21.468Z,98517.80
2022-12-25T19:36:51.863Z,98518.62
2022-12-25T19:39:22.053Z,98504.26
2022-12-25T19:41:52.218Z,98491.69
2022-12-25T19:44:22.684Z,98484.34
2022-12-25T19:46:53.741Z,98489.58
2022-12-25T19:49:23.928Z,98482.23
2022-12-25T19:51:54.497Z,98460.45
2022-12-25T19:54:25.269Z,98449.88
2022-12-25T19:56:58.718Z,98448.52
2022-12-25T19:59:31.837Z,98448.81
2022-12-25T20:02:02.537Z,98451.29
2022-12-25T20:04:33.101Z,98449.10
2022-12-25T20:07:03.722Z,98446.37
2022-12-25T20:09:34.006Z,98439.57
2022-12-25T20:12:04.136Z,98439.57
2022-12-25T20:14:34.182Z,98433.59
2022-12-25T20:17:04.926Z,98422.70
2022-12-25T20:19:36.043Z,98421.13
2022-12-25T20:22:06.516Z,98416.50
2022-12-25T20:24:36.733Z,98418.69
2022-12-25T20:27:07.364Z,98414.10
2022-12-25T20:32:07.923Z,98398.88
2022-12-25T20:34:37.576Z,98400.42
2022-12-25T20:37:07.759Z,98396.84
2022-12-25T20:39:40.379Z,98397.45
2022-12-25T20:42:10.423Z,98400.78
2022-12-25T20:44:41.108Z,98393.22
2022-12-25T20:47:11.329Z,98385.12
2022-12-25T20:49:42.021Z,98379.20
2022-12-25T20:52:12.188Z,98358.13
2022-12-25T20:54:43.270Z,98358.13
2022-12-25T20:57:13.472Z,98353.36
2022-12-25T20:59:45.293Z,98354.78
2022-12-25T21:02:34.102Z,98350.02
2022-12-25T21:04:53.881Z,98343.55
2022-12-25T21:07:19.271Z,98331.64
2022-12-25T21:09:49.703Z,98323.60
2022-12-25T21:12:20.312Z,98321.26
2022-12-25T21:14:51.949Z,98295.47
2022-12-25T21:17:22.334Z,98303.48
2022-12-25T21:19:52.384Z,98300.09
2022-12-25T21:22:22.557Z,98301.58
2022-12-25T21:24:54.129Z,98299.73
2022-12-25T21:27:24.428Z,98293.45
2022-12-25T21:29:55.422Z,98302.46
2022-12-25T21:32:44.023Z,98299.95
2022-12-25T21:35:14.384Z,98293.45
2022-12-25T21:37:45.036Z,98291.30
2022-12-25T21:40:16.686Z,98287.53
2022-12-25T21:42:47.208Z,98274.19
2022-12-25T21:45:17.471Z,98263.83
2022-12-25T21:47:59.776Z,98268.20
2022-12-25T21:50:39.394Z,98269.88
2022-12-25T21:53:08.958Z,98263.06
2022-12-25T21:55:39.623Z,98264.42
2022-12-25T21:58:09.891Z,98261.38
2022-12-25T22:00:40.184Z,98265.25
2022-12-25T22:03:10.861Z,98249.94
2022-12-25T22:05:58.394Z,98242.63
2022-12-25T22:08:32.308Z,98242.63
2022-12-25T22:11:08.019Z,98237.17
2022-12-25T22:13:55.139Z,98238.81
2022-12-25T22:16:43.079Z,98231.46
2022-12-25T22:19:31.031Z,98228.20
2022-12-25T22:22:01.102Z,98234.19
2022-12-25T22:24:31.313Z,98233.08
2022-12-25T22:27:01.341Z,98237.99
2022-12-25T22:29:32.178Z,98230.86
2022-12-25T22:32:05.204Z,98227.09
2022-12-25T22:34:39.479Z,98229.81
2022-12-25T22:37:10.354Z,98220.28
2022-12-25T22:39:41.851Z,98212.38
2022-12-25T22:42:12.143Z,98211.02
2022-12-25T22:44:42.364Z,98207.70
2022-12-25T22:47:12.920Z,98210.73
2022-12-25T22:49:43.081Z,98193.79
2022-12-25T22:52:13.236Z,98192.43
2022-12-25T22:54:44.409Z,98191.06
2022-12-25T22:57:14.418Z,98185.84
2022-12-25T22:59:44.781Z,98184.48
2022-12-25T23:02:15.630Z,98174.12
2022-12-25T23:04:46.242Z,98168.10
2022-12-25T23:07:16.494Z,98173.84
2022-12-25T23:09:47.331Z,98177.64
2022-12-25T23:12:35.312Z,98181.13
2022-12-25T23:15:05.640Z,98177.53
2022-12-25T23:17:53.187Z,98165.27
2022-12-25T23:20:41.110Z,98162.06
2022-12-25T23:23:31.377Z,98166.42
2022-12-25T23:26:10.680Z,98172.47
2022-12-25T23:28:59.192Z,98184.25
2022-12-25T23:31:35.084Z,98181.58
2022-12-25T23:34:06.201Z,98175.91
2022-12-25T23:36:36.421Z,98180.33
2022-12-25T23:39:10.426Z,98182.80
2022-12-25T23:48:08.194Z,98169.20
2022-12-25T23:50:38.724Z,98162.56
2022-12-25T23:53:09.378Z,98170.08
2022-12-25T23:55:39.430Z,98156.19
2022-12-25T23:58:09.760Z,98153.51
